New York, New York
Traffic Map
Current Weather Conditions
New York, New York
Clear
Clear
46°
Feels Like: 46°
Wind Chill: 46° Ceiling: Unl
Heat Index: 46° Visibility: 10mi
Dew Point: 32° Wind: 3mph
Humidity: 57% Direction: 270° (W)
Pressure: 30.4in Gusts: 0mph
Raw Report DataKJRB 181935Z AUTO 27003KT 10SM CLR 08/00 A3040 RMK AO1 P0007
Traffic Incident Summary
Active as of:
Severity:
Category:
InformationThere was an issue retrieving the traffic information for this location. Please try a different location or try again shortly.
Advertisements
At Last! Intellicast now available for iPhone and Android